sensor_id;sensor_type;location;lat;lon;timestamp;temperature;humidity
5711;DHT22;61291;52.524;13.422;2023-11-22T00:00:07;1.60;99.90
5711;DHT22;61291;52.524;13.422;2023-11-22T00:02:32;1.60;99.90
5711;DHT22;61291;52.524;13.422;2023-11-22T00:04:58;1.60;99.90
5711;DHT22;61291;52.524;13.422;2023-11-22T00:07:23;1.70;99.90
5711;DHT22;61291;52.524;13.422;2023-11-22T00:09:49;1.70;99.90
5711;DHT22;61291;52.524;13.422;2023-11-22T00:12:14;1.80;99.90
5711;DHT22;61291;52.524;13.422;2023-11-22T00:14:43;1.80;99.90
5711;DHT22;61291;52.524;13.422;2023-11-22T00:17:08;1.80;99.90
5711;DHT22;61291;52.524;13.422;2023-11-22T00:19:33;1.80;99.90
5711;DHT22;61291;52.524;13.422;2023-11-22T00:21:59;1.80;99.90
5711;DHT22;61291;52.524;13.422;2023-11-22T00:24:25;1.80;99.90
5711;DHT22;61291;52.524;13.422;2023-11-22T00:26:50;1.80;99.90
5711;DHT22;61291;52.524;13.422;2023-11-22T00:29:16;1.80;99.90
5711;DHT22;61291;52.524;13.422;2023-11-22T00:31:41;1.80;99.90
5711;DHT22;61291;52.524;13.422;2023-11-22T00:34:08;1.80;99.90
5711;DHT22;61291;52.524;13.422;2023-11-22T00:36:33;1.80;99.90
5711;DHT22;61291;52.524;13.422;2023-11-22T00:38:59;1.80;99.90
5711;DHT22;61291;52.524;13.422;2023-11-22T00:41:30;1.80;99.90
5711;DHT22;61291;52.524;13.422;2023-11-22T00:43:55;1.80;99.90
5711;DHT22;61291;52.524;13.422;2023-11-22T00:46:21;1.80;99.90
5711;DHT22;61291;52.524;13.422;2023-11-22T00:48:46;1.80;99.90
5711;DHT22;61291;52.524;13.422;2023-11-22T00:51:12;1.70;99.90
5711;DHT22;61291;52.524;13.422;2023-11-22T00:53:38;1.70;99.90
5711;DHT22;61291;52.524;13.422;2023-11-22T00:56:05;1.70;99.90
5711;DHT22;61291;52.524;13.422;2023-11-22T00:58:31;1.70;99.90
5711;DHT22;61291;52.524;13.422;2023-11-22T01:00:57;1.70;99.90
5711;DHT22;61291;52.524;13.422;2023-11-22T01:03:23;1.60;99.90
5711;DHT22;61291;52.524;13.422;2023-11-22T01:05:48;1.50;99.90
5711;DHT22;61291;52.524;13.422;2023-11-22T01:08:14;1.30;99.90
5711;DHT22;61291;52.524;13.422;2023-11-22T01:10:39;1.20;99.90
5711;DHT22;61291;52.524;13.422;2023-11-22T01:13:05;1.00;99.90
5711;DHT22;61291;52.524;13.422;2023-11-22T01:15:31;1.00;99.90
5711;DHT22;61291;52.524;13.422;2023-11-22T01:17:56;0.90;99.90
5711;DHT22;61291;52.524;13.422;2023-11-22T01:20:22;0.80;99.90
5711;DHT22;61291;52.524;13.422;2023-11-22T01:22:49;0.70;99.90
5711;DHT22;61291;52.524;13.422;2023-11-22T01:25:14;0.70;99.90
5711;DHT22;61291;52.524;13.422;2023-11-22T01:27:40;0.70;99.90
5711;DHT22;61291;52.524;13.422;2023-11-22T01:30:06;0.60;99.90
5711;DHT22;61291;52.524;13.422;2023-11-22T01:32:33;0.60;99.90
5711;DHT22;61291;52.524;13.422;2023-11-22T01:35:00;0.60;99.90
5711;DHT22;61291;52.524;13.422;2023-11-22T01:37:25;0.50;99.90
5711;DHT22;61291;52.524;13.422;2023-11-22T01:39:52;0.50;99.90
5711;DHT22;61291;52.524;13.422;2023-11-22T01:42:19;0.50;99.90
5711;DHT22;61291;52.524;13.422;2023-11-22T01:44:45;0.40;99.90
5711;DHT22;61291;52.524;13.422;2023-11-22T01:47:11;0.40;99.90
5711;DHT22;61291;52.524;13.422;2023-11-22T01:49:36;0.40;99.90
5711;DHT22;61291;52.524;13.422;2023-11-22T01:52:03;0.40;99.90
5711;DHT22;61291;52.524;13.422;2023-11-22T01:54:29;0.30;99.90
5711;DHT22;61291;52.524;13.422;2023-11-22T01:56:55;0.20;99.90
5711;DHT22;61291;52.524;13.422;2023-11-22T01:59:21;0.20;99.90
5711;DHT22;61291;52.524;13.422;2023-11-22T02:01:48;0.20;99.90
5711;DHT22;61291;52.524;13.422;2023-11-22T02:04:14;0.10;99.90
5711;DHT22;61291;52.524;13.422;2023-11-22T02:06:40;0.10;99.90
5711;DHT22;61291;52.524;13.422;2023-11-22T02:09:06;0.00;99.90
5711;DHT22;61291;52.524;13.422;2023-11-22T02:11:32;0.00;99.90
5711;DHT22;61291;52.524;13.422;2023-11-22T02:13:57;0.00;99.90
5711;DHT22;61291;52.524;13.422;2023-11-22T02:16:23;0.10;99.90
5711;DHT22;61291;52.524;13.422;2023-11-22T02:18:49;0.00;99.90
5711;DHT22;61291;52.524;13.422;2023-11-22T02:21:18;0.10;99.90
5711;DHT22;61291;52.524;13.422;2023-11-22T02:23:43;0.00;99.90
5711;DHT22;61291;52.524;13.422;2023-11-22T02:26:09;0.00;99.90
5711;DHT22;61291;52.524;13.422;2023-11-22T02:28:37;-0.10;99.90
5711;DHT22;61291;52.524;13.422;2023-11-22T02:31:03;-0.10;99.90
5711;DHT22;61291;52.524;13.422;2023-11-22T02:33:28;-0.10;99.90
5711;DHT22;61291;52.524;13.422;2023-11-22T02:35:54;-0.20;99.90
5711;DHT22;61291;52.524;13.422;2023-11-22T02:38:20;-0.20;99.90
5711;DHT22;61291;52.524;13.422;2023-11-22T02:40:45;-0.20;99.90
5711;DHT22;61291;52.524;13.422;2023-11-22T02:43:11;-0.10;99.90
5711;DHT22;61291;52.524;13.422;2023-11-22T02:45:37;0.00;99.90
5711;DHT22;61291;52.524;13.422;2023-11-22T02:48:04;-0.10;99.90
5711;DHT22;61291;52.524;13.422;2023-11-22T02:50:30;-0.20;99.90
5711;DHT22;61291;52.524;13.422;2023-11-22T02:52:57;-0.20;99.90
5711;DHT22;61291;52.524;13.422;2023-11-22T02:55:23;-0.10;99.90
5711;DHT22;61291;52.524;13.422;2023-11-22T02:57:50;-0.10;99.90
5711;DHT22;61291;52.524;13.422;2023-11-22T03:00:16;-0.10;99.90
5711;DHT22;61291;52.524;13.422;2023-11-22T03:02:44;-0.30;99.90
5711;DHT22;61291;52.524;13.422;2023-11-22T03:05:10;-0.30;99.90
5711;DHT22;61291;52.524;13.422;2023-11-22T03:07:36;-0.30;99.90
5711;DHT22;61291;52.524;13.422;2023-11-22T03:10:03;-0.30;99.90
5711;DHT22;61291;52.524;13.422;2023-11-22T03:12:31;-0.30;99.90
5711;DHT22;61291;52.524;13.422;2023-11-22T03:14:57;-0.30;99.90
5711;DHT22;61291;52.524;13.422;2023-11-22T03:17:26;-0.30;99.90
5711;DHT22;61291;52.524;13.422;2023-11-22T03:19:54;-0.40;99.90
5711;DHT22;61291;52.524;13.422;2023-11-22T03:22:21;-0.50;99.90
5711;DHT22;61291;52.524;13.422;2023-11-22T03:24:46;-0.40;99.90
5711;DHT22;61291;52.524;13.422;2023-11-22T03:27:12;-0.30;99.90
5711;DHT22;61291;52.524;13.422;2023-11-22T03:29:38;-0.30;99.90
5711;DHT22;61291;52.524;13.422;2023-11-22T03:32:04;-0.30;99.90
5711;DHT22;61291;52.524;13.422;2023-11-22T03:34:29;-0.30;99.90
5711;DHT22;61291;52.524;13.422;2023-11-22T03:36:55;-0.30;99.90
5711;DHT22;61291;52.524;13.422;2023-11-22T03:39:20;-0.40;99.90
5711;DHT22;61291;52.524;13.422;2023-11-22T03:41:46;-0.40;99.90
5711;DHT22;61291;52.524;13.422;2023-11-22T03:44:11;-0.50;99.90
5711;DHT22;61291;52.524;13.422;2023-11-22T03:46:38;-0.60;99.90
5711;DHT22;61291;52.524;13.422;2023-11-22T03:49:06;-0.70;99.90
5711;DHT22;61291;52.524;13.422;2023-11-22T03:51:32;-0.70;99.90
5711;DHT22;61291;52.524;13.422;2023-11-22T03:53:58;-0.80;99.90
5711;DHT22;61291;52.524;13.422;2023-11-22T03:56:23;-0.80;99.90
5711;DHT22;61291;52.524;13.422;2023-11-22T03:58:49;-0.90;99.90
5711;DHT22;61291;52.524;13.422;2023-11-22T04:01:14;-0.80;99.90
5711;DHT22;61291;52.524;13.422;2023-11-22T04:03:41;-0.80;99.90
5711;DHT22;61291;52.524;13.422;2023-11-22T04:06:07;-0.90;99.90
5711;DHT22;61291;52.524;13.422;2023-11-22T04:08:32;-0.80;99.90
5711;DHT22;61291;52.524;13.422;2023-11-22T04:10:58;-0.90;99.90
5711;DHT22;61291;52.524;13.422;2023-11-22T04:13:23;-0.90;99.90
5711;DHT22;61291;52.524;13.422;2023-11-22T04:15:50;-0.80;99.90
5711;DHT22;61291;52.524;13.422;2023-11-22T04:18:16;-0.80;99.90
5711;DHT22;61291;52.524;13.422;2023-11-22T04:20:41;-0.80;99.90
5711;DHT22;61291;52.524;13.422;2023-11-22T04:23:07;-0.70;99.90
5711;DHT22;61291;52.524;13.422;2023-11-22T04:25:36;-0.70;99.90
5711;DHT22;61291;52.524;13.422;2023-11-22T04:28:02;-0.70;99.90
5711;DHT22;61291;52.524;13.422;2023-11-22T04:30:27;-0.70;99.90
5711;DHT22;61291;52.524;13.422;2023-11-22T04:32:53;-0.80;99.90
5711;DHT22;61291;52.524;13.422;2023-11-22T04:35:18;-0.90;99.90
5711;DHT22;61291;52.524;13.422;2023-11-22T04:37:44;-1.00;99.90
5711;DHT22;61291;52.524;13.422;2023-11-22T04:40:11;-0.90;99.90
5711;DHT22;61291;52.524;13.422;2023-11-22T04:42:37;-1.00;99.90
5711;DHT22;61291;52.524;13.422;2023-11-22T04:45:03;-1.00;99.90
5711;DHT22;61291;52.524;13.422;2023-11-22T04:47:28;-0.90;99.90
5711;DHT22;61291;52.524;13.422;2023-11-22T04:49:54;-1.00;99.90
5711;DHT22;61291;52.524;13.422;2023-11-22T04:52:19;-1.00;99.90
5711;DHT22;61291;52.524;13.422;2023-11-22T04:54:45;-0.90;99.90
5711;DHT22;61291;52.524;13.422;2023-11-22T04:57:10;-0.90;99.90
5711;DHT22;61291;52.524;13.422;2023-11-22T04:59:36;-1.00;99.90
5711;DHT22;61291;52.524;13.422;2023-11-22T05:02:02;-1.00;99.90
5711;DHT22;61291;52.524;13.422;2023-11-22T05:04:27;-1.10;99.90
5711;DHT22;61291;52.524;13.422;2023-11-22T05:06:56;-1.10;99.90
5711;DHT22;61291;52.524;13.422;2023-11-22T05:09:21;-1.10;99.90
5711;DHT22;61291;52.524;13.422;2023-11-22T05:11:47;-1.10;99.90
5711;DHT22;61291;52.524;13.422;2023-11-22T05:14:12;-1.20;99.90
5711;DHT22;61291;52.524;13.422;2023-11-22T05:16:38;-1.10;99.90
5711;DHT22;61291;52.524;13.422;2023-11-22T05:19:04;-1.20;99.90
5711;DHT22;61291;52.524;13.422;2023-11-22T05:21:31;-1.30;99.90
5711;DHT22;61291;52.524;13.422;2023-11-22T05:23:57;-1.40;99.90
5711;DHT22;61291;52.524;13.422;2023-11-22T05:26:23;-1.30;99.90
5711;DHT22;61291;52.524;13.422;2023-11-22T05:28:48;-1.40;99.90
5711;DHT22;61291;52.524;13.422;2023-11-22T05:31:14;-1.30;99.90
5711;DHT22;61291;52.524;13.422;2023-11-22T05:33:40;-1.30;99.90
5711;DHT22;61291;52.524;13.422;2023-11-22T05:36:06;-1.30;99.90
5711;DHT22;61291;52.524;13.422;2023-11-22T05:38:32;-1.20;99.90
5711;DHT22;61291;52.524;13.422;2023-11-22T05:40:59;-1.20;99.90
5711;DHT22;61291;52.524;13.422;2023-11-22T05:43:25;-1.20;99.90
5711;DHT22;61291;52.524;13.422;2023-11-22T05:45:54;-1.30;99.90
5711;DHT22;61291;52.524;13.422;2023-11-22T05:48:20;-1.40;99.90
5711;DHT22;61291;52.524;13.422;2023-11-22T05:50:47;-1.30;99.90
5711;DHT22;61291;52.524;13.422;2023-11-22T05:53:13;-1.30;99.90
5711;DHT22;61291;52.524;13.422;2023-11-22T05:55:48;-1.30;99.90
5711;DHT22;61291;52.524;13.422;2023-11-22T05:58:14;-1.40;99.90
5711;DHT22;61291;52.524;13.422;2023-11-22T06:00:44;-1.40;99.90
5711;DHT22;61291;52.524;13.422;2023-11-22T06:03:10;-1.50;99.90
5711;DHT22;61291;52.524;13.422;2023-11-22T06:05:36;-1.50;99.90
5711;DHT22;61291;52.524;13.422;2023-11-22T06:08:01;-1.50;99.90
5711;DHT22;61291;52.524;13.422;2023-11-22T06:10:27;-1.40;99.90
5711;DHT22;61291;52.524;13.422;2023-11-22T06:12:52;-1.40;99.90
5711;DHT22;61291;52.524;13.422;2023-11-22T06:15:18;-1.40;99.90
5711;DHT22;61291;52.524;13.422;2023-11-22T06:17:46;-1.40;99.90
5711;DHT22;61291;52.524;13.422;2023-11-22T06:20:12;-1.40;99.90
5711;DHT22;61291;52.524;13.422;2023-11-22T06:22:38;-1.40;99.90
5711;DHT22;61291;52.524;13.422;2023-11-22T06:25:09;-1.50;99.90
5711;DHT22;61291;52.524;13.422;2023-11-22T06:27:36;-1.40;99.90
5711;DHT22;61291;52.524;13.422;2023-11-22T06:30:02;-1.50;99.90
5711;DHT22;61291;52.524;13.422;2023-11-22T06:32:28;-1.50;99.90
5711;DHT22;61291;52.524;13.422;2023-11-22T06:34:54;-1.50;99.90
5711;DHT22;61291;52.524;13.422;2023-11-22T06:37:19;-1.60;99.90
5711;DHT22;61291;52.524;13.422;2023-11-22T06:39:46;-1.70;99.90
5711;DHT22;61291;52.524;13.422;2023-11-22T06:42:11;-1.50;99.90
5711;DHT22;61291;52.524;13.422;2023-11-22T06:44:38;-1.40;99.90
5711;DHT22;61291;52.524;13.422;2023-11-22T06:47:05;-1.50;99.90
5711;DHT22;61291;52.524;13.422;2023-11-22T06:49:31;-1.50;99.90
5711;DHT22;61291;52.524;13.422;2023-11-22T06:51:56;-1.40;99.90
5711;DHT22;61291;52.524;13.422;2023-11-22T06:54:22;-1.30;99.90
5711;DHT22;61291;52.524;13.422;2023-11-22T06:56:47;-1.20;99.90
5711;DHT22;61291;52.524;13.422;2023-11-22T06:59:13;-1.10;99.90
5711;DHT22;61291;52.524;13.422;2023-11-22T07:01:38;-1.00;99.90
5711;DHT22;61291;52.524;13.422;2023-11-22T07:04:05;-1.00;99.90
5711;DHT22;61291;52.524;13.422;2023-11-22T07:06:32;-1.00;99.90
5711;DHT22;61291;52.524;13.422;2023-11-22T07:08:57;-1.00;99.90
5711;DHT22;61291;52.524;13.422;2023-11-22T07:11:26;-1.00;99.90
5711;DHT22;61291;52.524;13.422;2023-11-22T07:14:00;-0.90;99.90
5711;DHT22;61291;52.524;13.422;2023-11-22T07:16:25;-0.90;99.90
5711;DHT22;61291;52.524;13.422;2023-11-22T07:18:51;-0.80;99.90
5711;DHT22;61291;52.524;13.422;2023-11-22T07:21:16;-0.80;99.90
5711;DHT22;61291;52.524;13.422;2023-11-22T07:23:42;-0.80;99.90
5711;DHT22;61291;52.524;13.422;2023-11-22T07:26:10;-0.80;99.90
5711;DHT22;61291;52.524;13.422;2023-11-22T07:28:36;-0.70;99.90
5711;DHT22;61291;52.524;13.422;2023-11-22T07:31:02;-0.60;99.90
5711;DHT22;61291;52.524;13.422;2023-11-22T07:33:28;-0.50;99.90
5711;DHT22;61291;52.524;13.422;2023-11-22T07:35:53;-0.40;99.90
5711;DHT22;61291;52.524;13.422;2023-11-22T07:38:19;-0.40;99.90
5711;DHT22;61291;52.524;13.422;2023-11-22T07:40:45;-0.30;99.90
5711;DHT22;61291;52.524;13.422;2023-11-22T07:43:10;-0.30;99.90
5711;DHT22;61291;52.524;13.422;2023-11-22T07:45:36;-0.20;99.90
5711;DHT22;61291;52.524;13.422;2023-11-22T07:48:03;-0.10;99.90
5711;DHT22;61291;52.524;13.422;2023-11-22T07:50:29;0.00;99.90
5711;DHT22;61291;52.524;13.422;2023-11-22T07:52:55;0.00;99.90
5711;DHT22;61291;52.524;13.422;2023-11-22T07:55:21;0.10;99.90
5711;DHT22;61291;52.524;13.422;2023-11-22T07:57:48;0.10;99.90
5711;DHT22;61291;52.524;13.422;2023-11-22T08:00:14;0.10;99.90
5711;DHT22;61291;52.524;13.422;2023-11-22T08:02:47;0.10;99.90
5711;DHT22;61291;52.524;13.422;2023-11-22T08:05:12;0.10;99.90
5711;DHT22;61291;52.524;13.422;2023-11-22T08:07:40;0.10;99.90
5711;DHT22;61291;52.524;13.422;2023-11-22T08:10:08;0.10;99.90
5711;DHT22;61291;52.524;13.422;2023-11-22T08:12:44;0.20;99.90
5711;DHT22;61291;52.524;13.422;2023-11-22T08:15:10;0.30;99.90
5711;DHT22;61291;52.524;13.422;2023-11-22T08:17:40;0.20;99.90
5711;DHT22;61291;52.524;13.422;2023-11-22T08:20:07;0.30;99.90
5711;DHT22;61291;52.524;13.422;2023-11-22T08:22:37;0.40;99.90
5711;DHT22;61291;52.524;13.422;2023-11-22T08:25:04;0.40;99.90
5711;DHT22;61291;52.524;13.422;2023-11-22T08:27:30;0.40;99.90
5711;DHT22;61291;52.524;13.422;2023-11-22T08:29:56;0.50;99.90
5711;DHT22;61291;52.524;13.422;2023-11-22T08:32:22;0.50;99.90
5711;DHT22;61291;52.524;13.422;2023-11-22T08:34:50;0.60;99.90
5711;DHT22;61291;52.524;13.422;2023-11-22T08:37:17;0.60;99.90
5711;DHT22;61291;52.524;13.422;2023-11-22T08:39:42;0.70;99.90
5711;DHT22;61291;52.524;13.422;2023-11-22T08:42:08;0.70;99.90
5711;DHT22;61291;52.524;13.422;2023-11-22T08:44:36;0.80;99.90
5711;DHT22;61291;52.524;13.422;2023-11-22T08:47:02;0.80;99.90
5711;DHT22;61291;52.524;13.422;2023-11-22T08:49:28;0.90;99.90
5711;DHT22;61291;52.524;13.422;2023-11-22T08:51:54;0.90;99.90
5711;DHT22;61291;52.524;13.422;2023-11-22T08:54:19;1.00;99.90
5711;DHT22;61291;52.524;13.422;2023-11-22T08:56:45;1.00;99.90
5711;DHT22;61291;52.524;13.422;2023-11-22T08:59:12;1.10;99.90
5711;DHT22;61291;52.524;13.422;2023-11-22T09:01:37;1.20;99.90
5711;DHT22;61291;52.524;13.422;2023-11-22T09:04:03;1.20;99.90
5711;DHT22;61291;52.524;13.422;2023-11-22T09:06:29;1.30;99.90
5711;DHT22;61291;52.524;13.422;2023-11-22T09:08:55;1.40;99.90
5711;DHT22;61291;52.524;13.422;2023-11-22T09:11:20;1.40;99.90
5711;DHT22;61291;52.524;13.422;2023-11-22T09:13:48;1.50;99.90
5711;DHT22;61291;52.524;13.422;2023-11-22T09:16:15;1.60;99.90
5711;DHT22;61291;52.524;13.422;2023-11-22T09:18:42;1.60;99.90
5711;DHT22;61291;52.524;13.422;2023-11-22T09:21:08;1.70;99.90
5711;DHT22;61291;52.524;13.422;2023-11-22T09:23:35;1.70;99.90
5711;DHT22;61291;52.524;13.422;2023-11-22T09:26:02;1.70;99.90
5711;DHT22;61291;52.524;13.422;2023-11-22T09:28:28;1.80;99.90
5711;DHT22;61291;52.524;13.422;2023-11-22T09:30:53;1.90;99.90
5711;DHT22;61291;52.524;13.422;2023-11-22T09:33:19;1.90;99.90
5711;DHT22;61291;52.524;13.422;2023-11-22T09:35:45;2.00;99.90
5711;DHT22;61291;52.524;13.422;2023-11-22T09:38:12;2.10;99.90
5711;DHT22;61291;52.524;13.422;2023-11-22T09:40:43;2.10;99.90
5711;DHT22;61291;52.524;13.422;2023-11-22T09:43:09;2.30;99.90
5711;DHT22;61291;52.524;13.422;2023-11-22T09:45:35;2.40;99.90
5711;DHT22;61291;52.524;13.422;2023-11-22T09:48:02;2.60;99.90
5711;DHT22;61291;52.524;13.422;2023-11-22T09:50:42;2.60;99.90
5711;DHT22;61291;52.524;13.422;2023-11-22T09:53:13;2.70;99.90
5711;DHT22;61291;52.524;13.422;2023-11-22T09:55:41;2.80;99.90
5711;DHT22;61291;52.524;13.422;2023-11-22T09:58:11;2.90;99.90
5711;DHT22;61291;52.524;13.422;2023-11-22T10:00:39;2.90;99.90
5711;DHT22;61291;52.524;13.422;2023-11-22T10:03:06;3.00;99.90
5711;DHT22;61291;52.524;13.422;2023-11-22T10:05:31;3.10;99.90
5711;DHT22;61291;52.524;13.422;2023-11-22T10:07:57;3.10;99.90
5711;DHT22;61291;52.524;13.422;2023-11-22T10:10:23;3.20;99.90
5711;DHT22;61291;52.524;13.422;2023-11-22T10:12:54;3.30;99.90
5711;DHT22;61291;52.524;13.422;2023-11-22T10:15:21;3.50;99.90
5711;DHT22;61291;52.524;13.422;2023-11-22T10:17:54;3.60;99.90
5711;DHT22;61291;52.524;13.422;2023-11-22T10:23:01;3.70;99.90
5711;DHT22;61291;52.524;13.422;2023-11-22T10:25:28;3.70;99.90
5711;DHT22;61291;52.524;13.422;2023-11-22T10:27:54;3.80;99.90
5711;DHT22;61291;52.524;13.422;2023-11-22T10:30:20;3.80;99.90
5711;DHT22;61291;52.524;13.422;2023-11-22T10:32:46;3.90;99.90
5711;DHT22;61291;52.524;13.422;2023-11-22T10:35:11;4.10;99.90
5711;DHT22;61291;52.524;13.422;2023-11-22T10:37:41;4.20;99.90
5711;DHT22;61291;52.524;13.422;2023-11-22T10:40:10;4.20;99.90
5711;DHT22;61291;52.524;13.422;2023-11-22T10:42:40;4.20;99.90
5711;DHT22;61291;52.524;13.422;2023-11-22T10:45:06;4.10;99.90
5711;DHT22;61291;52.524;13.422;2023-11-22T10:47:38;4.10;99.90
5711;DHT22;61291;52.524;13.422;2023-11-22T10:50:05;4.10;99.90
5711;DHT22;61291;52.524;13.422;2023-11-22T10:52:34;4.10;99.90
5711;DHT22;61291;52.524;13.422;2023-11-22T10:55:03;4.10;99.90
5711;DHT22;61291;52.524;13.422;2023-11-22T10:57:32;4.20;99.90
5711;DHT22;61291;52.524;13.422;2023-11-22T11:00:01;4.20;99.90
5711;DHT22;61291;52.524;13.422;2023-11-22T11:02:32;4.20;99.90
5711;DHT22;61291;52.524;13.422;2023-11-22T11:05:03;4.40;99.90
5711;DHT22;61291;52.524;13.422;2023-11-22T11:07:37;4.50;99.90
5711;DHT22;61291;52.524;13.422;2023-11-22T11:10:06;4.50;99.90
5711;DHT22;61291;52.524;13.422;2023-11-22T11:12:31;4.60;99.90
5711;DHT22;61291;52.524;13.422;2023-11-22T11:14:58;4.60;99.90
5711;DHT22;61291;52.524;13.422;2023-11-22T11:17:24;4.60;99.90
5711;DHT22;61291;52.524;13.422;2023-11-22T11:19:49;4.60;99.90
5711;DHT22;61291;52.524;13.422;2023-11-22T11:22:15;4.70;99.90
5711;DHT22;61291;52.524;13.422;2023-11-22T11:24:41;4.80;99.90
5711;DHT22;61291;52.524;13.422;2023-11-22T11:27:12;4.80;99.90
5711;DHT22;61291;52.524;13.422;2023-11-22T11:29:38;4.80;99.90
5711;DHT22;61291;52.524;13.422;2023-11-22T11:32:12;4.80;99.90
5711;DHT22;61291;52.524;13.422;2023-11-22T11:34:47;4.70;99.90
5711;DHT22;61291;52.524;13.422;2023-11-22T11:37:14;4.70;99.90
5711;DHT22;61291;52.524;13.422;2023-11-22T11:39:40;4.70;99.90
5711;DHT22;61291;52.524;13.422;2023-11-22T11:42:10;4.70;99.90
5711;DHT22;61291;52.524;13.422;2023-11-22T11:44:36;4.80;99.80
5711;DHT22;61291;52.524;13.422;2023-11-22T11:47:20;4.80;99.90
5711;DHT22;61291;52.524;13.422;2023-11-22T11:49:46;4.80;99.60
5711;DHT22;61291;52.524;13.422;2023-11-22T11:52:13;4.80;99.80
5711;DHT22;61291;52.524;13.422;2023-11-22T11:54:39;4.80;99.70
5711;DHT22;61291;52.524;13.422;2023-11-22T11:57:04;4.90;99.90
5711;DHT22;61291;52.524;13.422;2023-11-22T11:59:32;4.90;99.60
5711;DHT22;61291;52.524;13.422;2023-11-22T12:01:59;5.00;99.10
5711;DHT22;61291;52.524;13.422;2023-11-22T12:04:25;5.00;99.20
5711;DHT22;61291;52.524;13.422;2023-11-22T12:06:51;5.10;99.10
5711;DHT22;61291;52.524;13.422;2023-11-22T12:09:26;5.10;99.10
5711;DHT22;61291;52.524;13.422;2023-11-22T12:11:54;5.10;98.90
5711;DHT22;61291;52.524;13.422;2023-11-22T12:14:20;5.00;98.70
5711;DHT22;61291;52.524;13.422;2023-11-22T12:16:46;5.10;98.40
5711;DHT22;61291;52.524;13.422;2023-11-22T12:19:21;5.10;97.80
5711;DHT22;61291;52.524;13.422;2023-11-22T12:21:48;5.20;97.60
5711;DHT22;61291;52.524;13.422;2023-11-22T12:24:14;5.10;97.60
5711;DHT22;61291;52.524;13.422;2023-11-22T12:26:47;5.00;97.40
5711;DHT22;61291;52.524;13.422;2023-11-22T12:29:16;5.00;97.10
5711;DHT22;61291;52.524;13.422;2023-11-22T12:31:49;5.10;97.40
5711;DHT22;61291;52.524;13.422;2023-11-22T12:34:21;5.10;97.50
5711;DHT22;61291;52.524;13.422;2023-11-22T12:36:48;5.10;96.90
5711;DHT22;61291;52.524;13.422;2023-11-22T12:39:14;5.10;96.80
5711;DHT22;61291;52.524;13.422;2023-11-22T12:41:47;5.30;97.10
5711;DHT22;61291;52.524;13.422;2023-11-22T12:44:13;5.40;97.00
5711;DHT22;61291;52.524;13.422;2023-11-22T12:46:52;5.40;95.70
5711;DHT22;61291;52.524;13.422;2023-11-22T12:49:23;5.50;95.90
5711;DHT22;61291;52.524;13.422;2023-11-22T12:51:49;5.70;96.30
5711;DHT22;61291;52.524;13.422;2023-11-22T12:54:15;5.60;95.80
5711;DHT22;61291;52.524;13.422;2023-11-22T12:56:42;5.70;96.00
5711;DHT22;61291;52.524;13.422;2023-11-22T12:59:08;5.70;95.90
5711;DHT22;61291;52.524;13.422;2023-11-22T13:01:34;5.70;95.80
5711;DHT22;61291;52.524;13.422;2023-11-22T13:04:00;5.70;95.80
5711;DHT22;61291;52.524;13.422;2023-11-22T13:06:26;5.70;95.50
5711;DHT22;61291;52.524;13.422;2023-11-22T13:08:52;5.60;95.20
5711;DHT22;61291;52.524;13.422;2023-11-22T13:11:18;5.70;95.20
5711;DHT22;61291;52.524;13.422;2023-11-22T13:13:44;5.60;95.20
5711;DHT22;61291;52.524;13.422;2023-11-22T13:16:12;5.50;94.90
5711;DHT22;61291;52.524;13.422;2023-11-22T13:18:37;5.30;94.30
5711;DHT22;61291;52.524;13.422;2023-11-22T13:21:04;5.20;94.80
5711;DHT22;61291;52.524;13.422;2023-11-22T13:23:30;5.10;94.80
5711;DHT22;61291;52.524;13.422;2023-11-22T13:25:56;5.10;93.90
5711;DHT22;61291;52.524;13.422;2023-11-22T13:28:21;5.10;94.00
5711;DHT22;61291;52.524;13.422;2023-11-22T13:30:49;5.10;93.80
5711;DHT22;61291;52.524;13.422;2023-11-22T13:33:16;5.10;94.10
5711;DHT22;61291;52.524;13.422;2023-11-22T13:35:41;5.10;94.20
5711;DHT22;61291;52.524;13.422;2023-11-22T13:38:06;5.10;94.30
5711;DHT22;61291;52.524;13.422;2023-11-22T13:40:36;5.00;94.10
5711;DHT22;61291;52.524;13.422;2023-11-22T13:43:04;4.90;93.70
5711;DHT22;61291;52.524;13.422;2023-11-22T13:45:30;4.90;93.90
5711;DHT22;61291;52.524;13.422;2023-11-22T13:47:55;4.80;93.80
5711;DHT22;61291;52.524;13.422;2023-11-22T13:50:32;4.80;93.70
5711;DHT22;61291;52.524;13.422;2023-11-22T13:52:58;4.70;93.60
5711;DHT22;61291;52.524;13.422;2023-11-22T13:55:24;4.60;93.20
5711;DHT22;61291;52.524;13.422;2023-11-22T13:57:54;4.50;93.10
5711;DHT22;61291;52.524;13.422;2023-11-22T14:00:27;4.40;93.20
5711;DHT22;61291;52.524;13.422;2023-11-22T14:02:56;4.30;93.00
5711;DHT22;61291;52.524;13.422;2023-11-22T14:05:25;4.30;93.20
5711;DHT22;61291;52.524;13.422;2023-11-22T14:07:52;4.10;93.20
5711;DHT22;61291;52.524;13.422;2023-11-22T14:10:18;4.00;93.50
5711;DHT22;61291;52.524;13.422;2023-11-22T14:12:44;4.00;93.40
5711;DHT22;61291;52.524;13.422;2023-11-22T14:15:13;3.90;93.40
5711;DHT22;61291;52.524;13.422;2023-11-22T14:17:39;3.90;93.40
5711;DHT22;61291;52.524;13.422;2023-11-22T14:20:15;3.80;93.50
5711;DHT22;61291;52.524;13.422;2023-11-22T14:22:41;3.70;93.60
5711;DHT22;61291;52.524;13.422;2023-11-22T14:25:09;3.60;93.80
5711;DHT22;61291;52.524;13.422;2023-11-22T14:27:43;3.50;93.90
5711;DHT22;61291;52.524;13.422;2023-11-22T14:30:10;3.40;94.00
5711;DHT22;61291;52.524;13.422;2023-11-22T14:32:39;3.30;94.30
5711;DHT22;61291;52.524;13.422;2023-11-22T14:35:05;3.20;94.40
5711;DHT22;61291;52.524;13.422;2023-11-22T14:37:30;3.10;94.70
5711;DHT22;61291;52.524;13.422;2023-11-22T14:39:57;3.10;94.80
5711;DHT22;61291;52.524;13.422;2023-11-22T14:42:22;2.90;95.10
5711;DHT22;61291;52.524;13.422;2023-11-22T14:44:50;2.90;95.40
5711;DHT22;61291;52.524;13.422;2023-11-22T14:47:17;2.80;95.70
5711;DHT22;61291;52.524;13.422;2023-11-22T14:49:51;2.80;95.80
5711;DHT22;61291;52.524;13.422;2023-11-22T14:52:17;2.70;96.00
5711;DHT22;61291;52.524;13.422;2023-11-22T14:54:44;2.60;96.00
5711;DHT22;61291;52.524;13.422;2023-11-22T14:57:10;2.60;96.50
5711;DHT22;61291;52.524;13.422;2023-11-22T14:59:40;2.60;96.60
5711;DHT22;61291;52.524;13.422;2023-11-22T15:02:07;2.50;96.50
5711;DHT22;61291;52.524;13.422;2023-11-22T15:04:34;2.50;96.60
5711;DHT22;61291;52.524;13.422;2023-11-22T15:07:02;2.50;97.00
5711;DHT22;61291;52.524;13.422;2023-11-22T15:09:28;2.40;96.80
5711;DHT22;61291;52.524;13.422;2023-11-22T15:11:53;2.50;97.00
5711;DHT22;61291;52.524;13.422;2023-11-22T15:14:20;2.50;97.50
5711;DHT22;61291;52.524;13.422;2023-11-22T15:16:47;2.50;97.30
5711;DHT22;61291;52.524;13.422;2023-11-22T15:19:13;2.50;97.40
5711;DHT22;61291;52.524;13.422;2023-11-22T15:21:38;2.50;97.40
5711;DHT22;61291;52.524;13.422;2023-11-22T15:24:04;2.50;97.50
5711;DHT22;61291;52.524;13.422;2023-11-22T15:26:30;2.50;97.70
5711;DHT22;61291;52.524;13.422;2023-11-22T15:28:55;2.50;97.60
5711;DHT22;61291;52.524;13.422;2023-11-22T15:31:21;2.50;97.70
5711;DHT22;61291;52.524;13.422;2023-11-22T15:33:48;2.40;97.70
5711;DHT22;61291;52.524;13.422;2023-11-22T15:36:14;2.50;97.80
5711;DHT22;61291;52.524;13.422;2023-11-22T15:38:40;2.50;97.80